Time;durP1;ratioP1;P1;durP2;ratioP2;P2;SDS_P1;SDS_P2;PMS_P1;PMS_P2;Temp;Humidity;BMP_temperature;BMP_pressure;BME280_temperature;BME280_humidity;BME280_pressure;Samples;Min_cycle;Max_cycle;Signal;HPM_P1;HPM_P2
2023/01/25 00:01:07;;;;;;;27.00;13.90;;;;;;;-0.75;77.83;102906.48;107384;1251;61253;-67
2023/01/25 00:03:36;;;;;;;23.90;11.80;;;;;;;-0.80;78.26;102910.05;107355;1245;73482;-67
2023/01/25 00:06:06;;;;;;;24.70;13.70;;;;;;;-0.81;78.21;102908.49;107343;1245;69933;-67
2023/01/25 00:08:34;;;;;;;25.60;13.00;;;;;;;-0.81;79.44;102907.46;107371;1245;70460;-66
2023/01/25 00:11:04;;;;;;;28.30;14.20;;;;;;;-0.62;81.10;102910.71;107400;1246;73888;-66
2023/01/25 00:13:32;;;;;;;26.90;13.00;;;;;;;-0.45;80.19;102912.59;107335;1254;61211;-65
2023/01/25 00:16:03;;;;;;;26.80;13.50;;;;;;;-0.45;78.94;102910.19;107104;1248;61368;-65
2023/01/25 00:18:32;;;;;;;27.20;13.50;;;;;;;-0.26;79.76;102911.20;107321;1246;73370;-65
2023/01/25 00:21:21;;;;;;;28.00;14.00;;;;;;;-0.13;79.10;102915.06;107386;1246;72140;-65
2023/01/25 00:23:50;;;;;;;28.90;13.70;;;;;;;-0.18;78.32;102916.39;107371;1244;71220;-64
2023/01/25 00:26:19;;;;;;;21.00;11.10;;;;;;;-0.30;77.77;102916.14;107384;1245;71623;-64
2023/01/25 00:28:53;;;;;;;27.30;12.90;;;;;;;-0.35;78.07;102912.33;107415;1245;59020;-63
2023/01/25 00:31:40;;;;;;;29.70;13.80;;;;;;;-0.39;79.06;102908.02;107359;1244;59682;-64
2023/01/25 00:34:14;;;;;;;25.30;12.70;;;;;;;-0.27;79.44;102911.88;107366;1241;73653;-64
2023/01/25 00:36:44;;;;;;;26.10;12.60;;;;;;;-0.25;78.85;102911.38;107359;1245;70668;-64
2023/01/25 00:39:13;;;;;;;25.00;12.90;;;;;;;-0.26;78.16;102916.85;107194;1255;69621;-67
2023/01/25 00:41:42;;;;;;;24.30;13.10;;;;;;;-0.38;78.03;102916.23;107340;1247;74175;-64
2023/01/25 00:50:38;;;;;;;25.60;13.50;;;;;;;-0.23;78.17;102917.04;104531;1278;600254;-65
2023/01/25 00:53:07;;;;;;;25.50;12.40;;;;;;;-0.16;76.44;102914.86;106958;1252;60929;-63
2023/01/25 00:55:36;;;;;;;24.10;13.50;;;;;;;-0.31;77.04;102913.91;107005;1256;59175;-65
2023/01/25 00:58:05;;;;;;;25.30;12.80;;;;;;;-0.29;77.25;102913.23;107132;1259;69134;-66
2023/01/25 01:00:34;;;;;;;25.90;13.10;;;;;;;-0.29;77.73;102910.48;107051;1251;69916;-65
2023/01/25 01:03:03;;;;;;;23.80;13.20;;;;;;;-0.22;78.49;102904.89;107081;1248;70597;-67
2023/01/25 01:05:31;;;;;;;26.30;14.30;;;;;;;-0.18;77.37;102905.78;106928;1245;73186;-67
2023/01/25 01:08:01;;;;;;;25.40;13.80;;;;;;;-0.22;76.84;102901.13;107120;1249;60945;-65
2023/01/25 01:10:30;;;;;;;23.20;12.50;;;;;;;-0.32;76.93;102898.64;107234;1249;59044;-66
2023/01/25 01:12:59;;;;;;;25.60;11.50;;;;;;;-0.34;77.46;102898.81;107194;1248;69395;-67
2023/01/25 01:15:28;;;;;;;15.70;8.50;;;;;;;-0.40;77.76;102898.25;107230;1248;68327;-67
2023/01/25 01:17:57;;;;;;;24.10;13.40;;;;;;;-0.42;78.39;102899.95;107194;1247;67922;-66
2023/01/25 01:20:26;;;;;;;24.30;12.80;;;;;;;-0.38;78.58;102894.83;107172;1249;71355;-64
2023/01/25 01:22:55;;;;;;;29.40;13.50;;;;;;;-0.36;78.33;102889.88;107181;1257;61469;-64
2023/01/25 01:25:24;;;;;;;22.30;12.40;;;;;;;-0.39;77.88;102889.02;107156;1257;60297;-63
2023/01/25 01:27:53;;;;;;;25.00;11.60;;;;;;;-0.31;78.19;102885.65;107215;1256;70223;-64
2023/01/25 01:30:22;;;;;;;21.30;11.90;;;;;;;-0.32;77.66;102878.45;107324;1245;69507;-69
2023/01/25 01:32:51;;;;;;;23.30;12.50;;;;;;;-0.37;78.10;102875.49;107383;1246;70176;-64
2023/01/25 01:35:21;;;;;;;22.00;11.60;;;;;;;-0.28;78.85;102872.65;107195;1248;72793;-65
2023/01/25 01:37:49;;;;;;;23.30;11.90;;;;;;;-0.33;77.27;102875.02;107330;1245;59881;-66
2023/01/25 01:40:19;;;;;;;21.40;11.50;;;;;;;-0.38;77.73;102871.56;107197;1248;61904;-65
2023/01/25 01:43:19;;;;;;;23.30;11.20;;;;;;;-0.37;77.72;102872.59;107376;1245;73054;-65
2023/01/25 01:45:50;;;;;;;21.20;12.40;;;;;;;-0.44;77.25;102873.91;107294;1256;72524;-66
2023/01/25 01:48:54;;;;;;;21.20;11.90;;;;;;;-0.42;77.64;102872.55;107295;1245;70751;-67
2023/01/25 01:51:39;;;;;;;22.20;11.60;;;;;;;-0.40;77.80;102872.04;107262;1246;71552;-67
2023/01/25 01:54:50;;;;;;;20.70;12.40;;;;;;;-0.39;77.47;102873.77;107165;1246;58969;-65
2023/01/25 01:57:25;;;;;;;20.90;11.10;;;;;;;-0.35;77.71;102872.43;107149;1248;58766;-65
2023/01/25 02:00:02;;;;;;;22.90;10.60;;;;;;;-0.42;77.40;102873.05;107121;1250;71886;-65
2023/01/25 02:02:41;;;;;;;23.60;12.70;;;;;;;-0.60;77.17;102872.07;107217;1251;71156;-66
2023/01/25 02:05:19;;;;;;;20.60;11.10;;;;;;;-0.61;77.07;102866.06;107059;1251;70924;-64
2023/01/25 02:07:51;;;;;;;22.50;11.30;;;;;;;-0.75;77.19;102863.88;107059;1256;71891;-70
2023/01/25 02:10:23;;;;;;;22.20;11.60;;;;;;;-0.80;77.22;102862.98;107074;1249;60425;-69
2023/01/25 02:12:54;;;;;;;24.40;11.90;;;;;;;-0.91;77.93;102856.05;107004;1249;60607;-69
2023/01/25 02:15:32;;;;;;;22.60;11.90;;;;;;;-0.93;77.99;102848.84;107137;1244;72094;-66
2023/01/25 02:18:02;;;;;;;21.90;11.50;;;;;;;-0.95;78.08;102845.75;107177;1248;70579;-68
2023/01/25 02:20:42;;;;;;;24.00;12.00;;;;;;;-0.97;78.14;102846.41;107202;1249;68531;-68
2023/01/25 02:23:42;;;;;;;21.60;12.00;;;;;;;-0.94;79.22;102838.39;107143;1248;71822;-70
2023/01/25 02:26:11;;;;;;;21.20;11.70;;;;;;;-0.90;78.28;102841.85;107065;1249;61543;-69
2023/01/25 02:28:53;;;;;;;20.30;11.70;;;;;;;-0.89;78.40;102837.77;106871;1251;59519;-69
2023/01/25 02:31:24;;;;;;;25.00;12.40;;;;;;;-0.91;78.42;102840.99;107137;1257;72804;-67
2023/01/25 02:33:53;;;;;;;24.10;11.60;;;;;;;-0.85;79.98;102841.22;106927;1248;70175;-67
2023/01/25 02:36:34;;;;;;;22.30;12.60;;;;;;;-0.83;78.99;102840.54;107017;1248;68095;-67
2023/01/25 02:39:14;;;;;;;20.90;11.40;;;;;;;-0.85;79.14;102836.41;107030;1255;72982;-66
2023/01/25 02:41:49;;;;;;;19.40;9.90;;;;;;;-0.79;78.72;102833.23;107004;1248;60017;-66
2023/01/25 02:44:27;;;;;;;23.00;12.30;;;;;;;-0.80;79.16;102832.88;107139;1251;59122;-66
2023/01/25 02:46:57;;;;;;;22.50;11.90;;;;;;;-0.78;79.27;102835.30;107117;1250;72469;-67
2023/01/25 02:49:26;;;;;;;23.40;11.90;;;;;;;-0.68;79.43;102829.89;107222;1244;72460;-70
2023/01/25 02:51:56;;;;;;;22.90;12.00;;;;;;;-0.69;79.18;102830.90;107220;1248;70478;-67
2023/01/25 02:54:26;;;;;;;24.00;12.60;;;;;;;-0.63;79.47;102830.27;106996;1248;71626;-67
2023/01/25 02:56:56;;;;;;;24.20;12.50;;;;;;;-0.60;79.31;102830.47;107098;1248;59129;-70
2023/01/25 02:59:26;;;;;;;21.50;11.70;;;;;;;-0.64;78.94;102829.23;107025;1249;60455;-70
2023/01/25 03:01:58;;;;;;;23.10;12.10;;;;;;;-0.70;78.76;102828.52;107018;1252;70145;-70
2023/01/25 03:04:28;;;;;;;21.30;11.40;;;;;;;-0.80;78.36;102828.77;106943;1248;68982;-70
2023/01/25 03:06:57;;;;;;;22.50;11.60;;;;;;;-0.87;78.21;102829.23;106842;1256;68306;-69
2023/01/25 03:09:26;;;;;;;20.40;10.10;;;;;;;-0.90;78.96;102826.62;106911;1257;73069;-68
2023/01/25 03:11:56;;;;;;;22.20;11.60;;;;;;;-0.90;79.13;102824.59;106777;1248;61723;-67
2023/01/25 03:14:25;;;;;;;19.20;10.00;;;;;;;-0.91;79.63;102826.95;106932;1250;61157;-67
2023/01/25 03:16:54;;;;;;;21.90;11.30;;;;;;;-0.92;79.23;102826.11;106906;1252;70281;-67
2023/01/25 03:19:23;;;;;;;21.80;11.80;;;;;;;-0.98;79.09;102821.77;106898;1257;70927;-67
2023/01/25 03:21:52;;;;;;;24.40;12.10;;;;;;;-0.99;79.33;102820.21;106887;1255;69523;-66
2023/01/25 03:24:21;;;;;;;22.70;11.60;;;;;;;-1.03;79.34;102819.66;107011;1249;73554;-68
2023/01/25 03:27:10;;;;;;;25.20;13.50;;;;;;;-1.04;79.92;102815.73;107068;1257;59074;-67
2023/01/25 03:29:45;;;;;;;24.70;13.70;;;;;;;-1.02;79.71;102814.38;107052;1244;60089;-67
2023/01/25 03:32:17;;;;;;;27.10;13.10;;;;;;;-1.02;79.39;102814.71;107102;1257;70701;-67
2023/01/25 03:34:46;;;;;;;28.80;13.30;;;;;;;-1.09;79.74;102815.52;107121;1248;69833;-68
2023/01/25 03:37:16;;;;;;;24.50;13.60;;;;;;;-1.10;79.82;102816.69;107162;1250;70449;-68
2023/01/25 03:39:45;;;;;;;26.40;13.50;;;;;;;-1.18;80.50;102816.97;107149;1248;72257;-70
2023/01/25 03:42:15;;;;;;;21.60;11.50;;;;;;;-1.01;81.09;102812.50;107121;1244;58850;-69
2023/01/25 03:44:45;;;;;;;23.90;13.10;;;;;;;-1.02;80.42;102808.73;107132;1245;61940;-67
2023/01/25 03:47:15;;;;;;;24.50;12.30;;;;;;;-1.02;80.78;102802.58;107140;1248;72198;-67
2023/01/25 03:49:44;;;;;;;23.00;13.20;;;;;;;-0.89;80.74;102801.83;107134;1244;72221;-68
2023/01/25 03:52:14;;;;;;;21.80;11.80;;;;;;;-0.78;80.24;102803.27;107052;1248;69081;-67
2023/01/25 03:54:43;;;;;;;28.30;13.50;;;;;;;-0.61;80.06;102806.50;107111;1245;74174;-68
2023/01/25 03:57:14;;;;;;;22.90;12.10;;;;;;;-0.64;78.43;102807.34;107075;1248;61475;-68
2023/01/25 03:59:52;;;;;;;24.00;13.00;;;;;;;-0.72;78.21;102810.70;107107;1248;61301;-68
2023/01/25 04:02:21;;;;;;;23.00;14.00;;;;;;;-0.80;78.63;102810.45;107305;1245;70704;-68
2023/01/25 04:04:50;;;;;;;28.80;13.30;;;;;;;-0.87;78.99;102813.31;107141;1244;71982;-68
2023/01/25 04:07:21;;;;;;;27.20;13.50;;;;;;;-0.91;79.02;102812.41;107210;1245;70727;-69
2023/01/25 04:09:50;;;;;;;25.20;12.80;;;;;;;-0.97;78.96;102810.48;107223;1248;73638;-67
2023/01/25 04:12:19;;;;;;;25.50;12.70;;;;;;;-1.02;79.13;102812.65;107249;1244;60880;-66
2023/01/25 04:14:48;;;;;;;22.60;12.10;;;;;;;-1.03;79.38;102809.40;107170;1248;59972;-68
2023/01/25 04:17:20;;;;;;;27.20;12.70;;;;;;;-1.07;79.11;102805.95;107274;1245;72998;-67
2023/01/25 04:20:32;;;;;;;22.70;12.40;;;;;;;-1.11;79.21;102809.00;107100;1248;72141;-68
2023/01/25 04:23:02;;;;;;;24.00;12.10;;;;;;;-1.13;79.63;102804.70;107161;1245;71034;-68
2023/01/25 04:25:36;;;;;;;24.70;12.50;;;;;;;-1.11;79.53;102801.30;107150;1248;71520;-68
2023/01/25 04:28:08;;;;;;;23.20;11.60;;;;;;;-1.09;79.30;102800.80;107217;1245;59867;-69
2023/01/25 04:30:37;;;;;;;25.10;12.50;;;;;;;-0.97;80.08;102801.77;107223;1246;60777;-69
2023/01/25 04:33:07;;;;;;;25.30;12.30;;;;;;;-0.77;79.73;102801.42;107175;1256;70920;-72
2023/01/25 04:35:37;;;;;;;24.00;12.40;;;;;;;-0.61;79.75;102805.13;107206;1245;69328;-68
2023/01/25 04:38:06;;;;;;;24.20;12.50;;;;;;;-0.54;78.45;102809.13;107120;1252;68916;-69
2023/01/25 04:40:38;;;;;;;26.80;13.50;;;;;;;-0.69;78.17;102806.09;107152;1257;71703;-69
2023/01/25 04:43:09;;;;;;;22.60;11.80;;;;;;;-0.64;77.87;102805.63;107177;1247;60319;-69
2023/01/25 04:45:38;;;;;;;27.40;13.80;;;;;;;-0.63;78.33;102810.59;107195;1245;59355;-69
2023/01/25 04:48:13;;;;;;;21.70;12.00;;;;;;;-0.66;78.04;102811.60;107236;1247;73642;-70
2023/01/25 04:50:48;;;;;;;25.30;12.60;;;;;;;-0.70;77.60;102816.54;107115;1248;70177;-68
2023/01/25 04:53:19;;;;;;;21.80;11.70;;;;;;;-0.83;78.01;102813.02;107026;1249;67777;-68
2023/01/25 04:55:48;;;;;;;23.30;12.20;;;;;;;-0.82;78.19;102812.16;107085;1257;73480;-68
2023/01/25 04:58:18;;;;;;;20.10;10.80;;;;;;;-0.80;79.24;102814.05;107343;1244;59137;-68
2023/01/25 05:00:47;;;;;;;26.60;13.30;;;;;;;-0.81;78.48;102819.17;107156;1257;60651;-68
2023/01/25 05:03:17;;;;;;;26.20;13.50;;;;;;;-0.81;78.79;102822.25;107173;1245;73542;-68
2023/01/25 05:05:47;;;;;;;26.10;12.60;;;;;;;-0.89;78.88;102821.34;107083;1257;72436;-68
2023/01/25 05:08:18;;;;;;;26.10;12.50;;;;;;;-0.94;78.64;102824.71;107054;1244;71049;-69
2023/01/25 05:13:09;;;;;;;26.80;13.50;;;;;;;-1.07;78.89;102820.83;103959;1285;599430;-73
2023/01/25 05:15:38;;;;;;;27.60;12.60;;;;;;;-1.21;79.50;102821.38;106336;1266;62275;-68
2023/01/25 05:18:08;;;;;;;27.30;12.10;;;;;;;-1.20;79.44;102820.20;106866;1252;60508;-72
2023/01/25 05:20:38;;;;;;;29.60;12.70;;;;;;;-1.25;79.38;102820.47;106903;1260;71001;-69
2023/01/25 05:23:07;;;;;;;25.80;12.40;;;;;;;-1.26;79.45;102817.90;106828;1258;70162;-70
2023/01/25 05:28:28;;;;;;;30.00;14.10;;;;;;;-1.29;79.59;102825.23;107067;1247;73089;-69
2023/01/25 05:31:11;;;;;;;26.10;13.30;;;;;;;-1.31;79.77;102826.06;107070;1248;58983;-70
2023/01/25 05:33:40;;;;;;;29.10;13.40;;;;;;;-1.32;80.35;102826.91;106942;1252;59107;-70
2023/01/25 05:36:09;;;;;;;23.80;11.90;;;;;;;-1.30;80.12;102831.55;107049;1259;69108;-69
2023/01/25 05:38:38;;;;;;;25.40;12.30;;;;;;;-1.29;79.47;102831.90;107272;1248;70871;-70
2023/01/25 05:41:08;;;;;;;25.50;12.00;;;;;;;-1.31;79.46;102833.58;109325;1247;68809;-70
2023/01/25 05:43:37;;;;;;;23.90;12.10;;;;;;;-1.32;79.72;102832.20;109177;1247;73784;-71
2023/01/25 05:46:07;;;;;;;25.40;13.00;;;;;;;-1.32;79.81;102838.02;106950;1249;59299;-70
2023/01/25 05:48:36;;;;;;;25.80;13.10;;;;;;;-1.33;80.17;102832.70;106940;1249;58758;-70
2023/01/25 05:51:06;;;;;;;26.50;13.10;;;;;;;-1.30;79.91;102836.33;107073;1247;72504;-71
2023/01/25 05:53:34;;;;;;;28.30;14.10;;;;;;;-1.33;79.61;102834.77;106836;1247;70747;-75
2023/01/25 05:56:09;;;;;;;24.20;13.50;;;;;;;-1.38;79.64;102838.12;107130;1249;70947;-73
2023/01/25 05:58:38;;;;;;;27.30;13.80;;;;;;;-1.31;79.97;102840.23;106915;1251;72288;-71
2023/01/25 06:01:08;;;;;;;27.90;12.80;;;;;;;-1.32;79.93;102845.19;107080;1248;61800;-71
2023/01/25 06:03:47;;;;;;;26.70;13.10;;;;;;;-1.30;80.05;102847.45;107041;1258;61259;-70
2023/01/25 06:06:16;;;;;;;25.50;12.80;;;;;;;-1.31;79.78;102846.21;107106;1249;73378;-69
2023/01/25 06:08:47;;;;;;;30.10;13.30;;;;;;;-1.27;80.89;102851.23;107048;1248;70918;-69
2023/01/25 06:11:20;;;;;;;25.70;12.90;;;;;;;-1.24;80.63;102848.18;106751;1258;69344;-71
2023/01/25 06:13:50;;;;;;;27.70;14.30;;;;;;;-1.19;80.57;102850.98;106717;1251;73401;-71
2023/01/25 06:16:21;;;;;;;25.20;13.30;;;;;;;-1.10;80.76;102848.49;107003;1247;59137;-70
2023/01/25 06:19:52;;;;;;;29.40;12.50;;;;;;;-0.81;80.27;102852.89;106885;1247;60493;-71
2023/01/25 06:22:36;;;;;;;26.40;13.40;;;;;;;-0.62;79.79;102853.21;106827;1249;72262;-72
2023/01/25 06:25:06;;;;;;;25.30;13.50;;;;;;;-0.53;78.89;102853.30;106797;1251;70847;-73
2023/01/25 06:27:36;;;;;;;23.50;12.50;;;;;;;-0.47;78.38;102855.05;106882;1245;69667;-73
2023/01/25 06:30:06;;;;;;;29.00;13.20;;;;;;;-0.58;78.10;102853.60;107067;1247;72769;-73
2023/01/25 06:32:35;;;;;;;27.60;13.40;;;;;;;-0.44;78.23;102849.77;106819;1244;58995;-72
2023/01/25 06:35:05;;;;;;;25.00;13.50;;;;;;;-0.18;78.20;102854.55;106924;1247;60405;-73
2023/01/25 06:37:34;;;;;;;27.50;12.20;;;;;;;-0.18;77.19;102857.30;106819;1244;71468;-73
2023/01/25 06:40:04;;;;;;;26.40;14.10;;;;;;;-0.33;77.12;102855.48;106873;1246;72269;-73
2023/01/25 06:42:33;;;;;;;27.10;13.40;;;;;;;-0.47;77.33;102857.45;106969;1258;70022;-70
2023/01/25 06:45:03;;;;;;;26.40;14.30;;;;;;;-0.49;78.48;102862.39;107083;1251;74663;-73
2023/01/25 06:47:32;;;;;;;27.30;13.70;;;;;;;-0.65;78.00;102861.58;107060;1257;59531;-71
2023/01/25 06:50:02;;;;;;;26.50;12.80;;;;;;;-0.61;78.20;102861.61;107116;1244;60815;-72
2023/01/25 06:52:35;;;;;;;32.10;15.50;;;;;;;-0.72;78.09;102862.20;107112;1245;72184;-69
2023/01/25 06:55:07;;;;;;;30.10;14.60;;;;;;;-0.92;78.57;102857.92;106978;1254;71528;-72
2023/01/25 06:57:36;;;;;;;28.30;13.40;;;;;;;-0.83;80.58;102859.55;106906;1248;70773;-70
2023/01/25 07:00:06;;;;;;;25.50;12.20;;;;;;;-0.87;79.68;102856.24;106964;1254;73758;-72
2023/01/25 07:02:36;;;;;;;25.00;13.30;;;;;;;-0.96;79.04;102855.83;106922;1248;62038;-71
2023/01/25 07:05:06;;;;;;;31.20;15.00;;;;;;;-1.03;79.77;102851.83;106963;1244;61882;-71
2023/01/25 07:07:35;;;;;;;32.00;15.70;;;;;;;-1.08;80.58;102850.73;106981;1248;70195;-71
2023/01/25 07:10:05;;;;;;;26.70;13.50;;;;;;;-1.05;81.30;102850.77;106963;1257;70124;-72
2023/01/25 07:12:34;;;;;;;29.90;13.40;;;;;;;-1.02;80.68;102847.38;107009;1248;68108;-71
2023/01/25 07:15:04;;;;;;;28.70;14.30;;;;;;;-1.03;80.90;102848.05;106853;1247;72995;-70
2023/01/25 07:17:32;;;;;;;22.20;11.90;;;;;;;-1.03;80.62;102851.66;106998;1249;60692;-72
2023/01/25 07:20:02;;;;;;;26.20;12.50;;;;;;;-1.02;80.26;102851.31;107102;1248;61116;-71
2023/01/25 07:22:33;;;;;;;30.40;15.20;;;;;;;-1.08;80.53;102854.50;107049;1258;70675;-71
2023/01/25 07:25:02;;;;;;;25.20;12.70;;;;;;;-1.13;81.54;102852.58;106943;1248;69516;-71
2023/01/25 07:27:34;;;;;;;28.90;14.20;;;;;;;-1.06;80.46;102848.19;107037;1248;68273;-71
2023/01/25 07:30:05;;;;;;;23.40;13.20;;;;;;;-1.17;80.80;102852.19;106973;1248;73792;-70
2023/01/25 07:32:34;;;;;;;24.60;13.20;;;;;;;-1.20;81.48;102845.84;107008;1246;61061;-70
2023/01/25 07:35:03;;;;;;;30.70;14.60;;;;;;;-1.09;81.19;102845.94;107087;1248;60166;-71
2023/01/25 07:37:33;;;;;;;29.50;14.10;;;;;;;-1.17;81.35;102847.40;107124;1258;70766;-71
2023/01/25 07:40:02;;;;;;;24.20;12.10;;;;;;;-1.09;81.37;102846.46;107194;1244;71303;-72
2023/01/25 07:42:31;;;;;;;24.90;12.90;;;;;;;-1.13;80.11;102836.68;107161;1258;68160;-71
2023/01/25 07:45:14;;;;;;;26.50;13.40;;;;;;;-1.21;80.52;102840.52;107150;1244;73397;-71
2023/01/25 07:47:43;;;;;;;23.00;11.80;;;;;;;-1.22;80.41;102842.57;107152;1246;61203;-70
2023/01/25 07:50:12;;;;;;;19.50;10.40;;;;;;;-1.22;80.86;102842.57;107086;1247;59992;-70
2023/01/25 07:52:41;;;;;;;28.50;14.20;;;;;;;-1.19;80.66;102839.70;107136;1247;70715;-70
2023/01/25 07:55:10;;;;;;;25.40;12.60;;;;;;;-1.22;81.43;102839.31;107059;1248;69785;-70
2023/01/25 07:57:40;;;;;;;29.50;14.40;;;;;;;-1.21;81.11;102840.85;106931;1255;69455;-70
2023/01/25 08:00:11;;;;;;;28.10;13.40;;;;;;;-1.20;81.25;102840.52;107137;1251;74197;-71
2023/01/25 08:02:40;;;;;;;25.40;12.40;;;;;;;-1.21;81.20;102835.57;107073;1247;60090;-72
2023/01/25 08:05:09;;;;;;;30.50;15.10;;;;;;;-1.25;80.93;102840.48;107041;1247;59727;-70
2023/01/25 08:07:39;;;;;;;28.30;12.60;;;;;;;-1.25;81.70;102838.59;107079;1248;73155;-71
2023/01/25 08:10:09;;;;;;;28.50;14.00;;;;;;;-1.20;81.32;102834.88;107133;1244;72060;-69
2023/01/25 08:12:38;;;;;;;27.30;11.70;;;;;;;-1.26;81.22;102834.14;107021;1248;68957;-70
2023/01/25 08:15:08;;;;;;;29.30;13.60;;;;;;;-1.35;81.73;102835.25;107108;1248;71109;-71
2023/01/25 08:17:37;;;;;;;28.60;14.70;;;;;;;-1.33;81.98;102834.92;107083;1248;61825;-70
2023/01/25 08:20:08;;;;;;;26.60;14.10;;;;;;;-1.24;81.37;102829.38;107173;1249;60785;-71
2023/01/25 08:22:37;;;;;;;30.90;13.50;;;;;;;-1.21;80.85;102829.75;107125;1247;70748;-69
2023/01/25 08:25:07;;;;;;;26.50;13.50;;;;;;;-1.26;81.10;102832.60;107114;1244;71659;-69
2023/01/25 08:27:36;;;;;;;32.70;14.70;;;;;;;-1.24;81.33;102823.40;107085;1247;68475;-70
2023/01/25 08:30:06;;;;;;;35.20;15.50;;;;;;;-1.24;81.18;102818.09;107204;1248;71355;-70
2023/01/25 08:32:35;;;;;;;36.30;16.60;;;;;;;-1.20;81.41;102825.32;107120;1248;58988;-71
2023/01/25 08:35:07;;;;;;;27.80;14.00;;;;;;;-1.20;81.71;102822.92;107107;1254;61183;-70
2023/01/25 08:37:36;;;;;;;26.60;14.00;;;;;;;-1.20;81.46;102824.11;107157;1244;71183;-73
2023/01/25 08:40:06;;;;;;;30.70;14.00;;;;;;;-1.21;81.28;102823.27;107196;1245;71626;-71
2023/01/25 08:42:35;;;;;;;34.40;16.70;;;;;;;-1.20;81.44;102822.41;107209;1249;71433;-72
2023/01/25 08:45:05;;;;;;;25.40;13.10;;;;;;;-1.22;81.18;102816.40;107196;1258;74822;-71
2023/01/25 08:47:35;;;;;;;28.90;15.00;;;;;;;-1.20;81.31;102815.05;107499;1243;60014;-70
2023/01/25 08:50:05;;;;;;;33.30;16.10;;;;;;;-1.23;81.96;102814.69;107615;1248;60612;-72
2023/01/25 08:52:34;;;;;;;37.00;16.90;;;;;;;-1.27;82.07;102813.97;107548;1244;69871;-71
2023/01/25 08:55:04;;;;;;;25.70;13.70;;;;;;;-1.40;81.97;102815.53;107623;1241;70482;-70
2023/01/25 08:57:32;;;;;;;29.80;15.10;;;;;;;-1.21;81.50;102817.61;107523;1252;69725;-70
2023/01/25 09:00:02;;;;;;;31.10;15.30;;;;;;;-1.26;82.26;102815.85;107620;1241;73844;-69
2023/01/25 09:02:31;;;;;;;31.90;15.60;;;;;;;-1.17;82.20;102815.60;107474;1242;58687;-71
2023/01/25 09:05:01;;;;;;;29.60;14.20;;;;;;;-1.08;81.47;102809.02;107496;1245;60473;-72
2023/01/25 09:07:31;;;;;;;25.70;13.70;;;;;;;-1.17;81.45;102809.97;107267;1244;74168;-72
2023/01/25 09:10:00;;;;;;;27.30;13.80;;;;;;;-1.13;81.44;102807.09;107549;1240;73294;-72
2023/01/25 09:12:30;;;;;;;30.20;13.20;;;;;;;-1.29;81.87;102802.14;107523;1241;68297;-71
2023/01/25 09:14:59;;;;;;;32.80;14.30;;;;;;;-1.20;81.76;102799.15;107542;1242;71064;-70
2023/01/25 09:17:28;;;;;;;29.30;13.60;;;;;;;-1.14;81.50;102798.02;107422;1242;60324;-73
2023/01/25 09:19:57;;;;;;;35.60;16.50;;;;;;;-1.05;80.98;102797.25;107403;1246;59038;-69
2023/01/25 09:22:26;;;;;;;27.60;14.10;;;;;;;-1.15;81.04;102790.98;107346;1244;70525;-71
2023/01/25 09:24:55;;;;;;;32.80;17.10;;;;;;;-1.11;81.64;102786.41;107483;1253;71374;-70
2023/01/25 09:27:24;;;;;;;35.60;17.80;;;;;;;-1.10;82.32;102785.40;107377;1250;68944;-72
2023/01/25 09:29:53;;;;;;;31.60;16.40;;;;;;;-1.01;81.43;102778.65;107411;1242;71267;-71
2023/01/25 09:32:30;;;;;;;48.60;19.80;;;;;;;-0.97;81.03;102773.20;107328;1242;61657;-72
2023/01/25 09:34:59;;;;;;;30.80;14.50;;;;;;;-0.95;82.17;102770.48;107200;1254;59452;-72
2023/01/25 09:37:28;;;;;;;32.20;15.10;;;;;;;-0.94;81.22;102766.20;107489;1245;71863;-72
2023/01/25 09:39:57;;;;;;;26.60;12.70;;;;;;;-0.92;81.32;102764.01;107479;1245;69481;-72
2023/01/25 09:43:03;;;;;;;26.90;14.00;;;;;;;-0.86;80.91;102763.52;107357;1252;69691;-73
2023/01/25 09:45:36;;;;;;;25.30;12.90;;;;;;;-0.68;81.08;102755.11;107541;1242;71111;-72
2023/01/25 09:49:01;;;;;;;25.90;14.10;;;;;;;-0.68;80.17;102750.15;107316;1244;61223;-72
2023/01/25 09:52:29;;;;;;;29.50;15.50;;;;;;;-0.73;80.02;102743.79;107468;1242;59761;-71
2023/01/25 09:54:58;;;;;;;24.30;13.20;;;;;;;-0.76;79.72;102736.05;107460;1243;70909;-71
2023/01/25 09:57:35;;;;;;;32.50;14.90;;;;;;;-0.80;79.73;102735.52;107388;1245;70587;-72
2023/01/25 10:00:36;;;;;;;30.20;15.30;;;;;;;-0.78;80.66;102738.10;107475;1249;68903;-71
2023/01/25 10:03:25;;;;;;;28.90;15.20;;;;;;;-0.73;80.72;102734.20;107426;1242;74298;-71
2023/01/25 10:05:59;;;;;;;37.00;17.50;;;;;;;-0.73;81.55;102725.48;107436;1251;60629;-71
2023/01/25 10:08:38;;;;;;;30.30;15.40;;;;;;;-0.68;79.93;102724.30;107429;1243;60007;-71
2023/01/25 10:11:19;;;;;;;25.90;14.00;;;;;;;-0.65;80.57;102722.61;107456;1244;71045;-71
2023/01/25 10:13:48;;;;;;;28.90;13.40;;;;;;;-0.57;79.90;102719.08;107276;1248;69631;-72
2023/01/25 10:16:46;;;;;;;26.80;13.60;;;;;;;-0.49;79.72;102709.53;107362;1244;68687;-72
2023/01/25 10:19:21;;;;;;;26.80;14.10;;;;;;;-0.80;80.15;102705.75;107157;1245;71897;-71
2023/01/25 10:21:59;;;;;;;31.80;14.30;;;;;;;-0.59;80.10;102704.85;107300;1240;59015;-70
2023/01/25 10:24:49;;;;;;;34.10;15.70;;;;;;;-0.48;79.77;102702.18;107267;1242;60669;-72
2023/01/25 10:27:31;;;;;;;42.60;18.20;;;;;;;-0.62;79.75;102701.58;107306;1242;73327;-71
2023/01/25 10:30:26;;;;;;;30.10;14.10;;;;;;;-0.59;79.61;102702.45;107240;1244;71216;-71
2023/01/25 10:33:09;;;;;;;32.20;15.70;;;;;;;-0.58;80.43;102696.98;107548;1241;71274;-70
2023/01/25 10:35:44;;;;;;;27.90;13.30;;;;;;;-0.60;80.98;102695.28;107462;1242;73552;-73
2023/01/25 10:38:45;;;;;;;28.70;13.40;;;;;;;-0.57;79.95;102700.41;107495;1245;61246;-73
2023/01/25 10:41:28;;;;;;;29.00;13.60;;;;;;;-0.54;80.55;102699.91;107435;1244;59798;-71
2023/01/25 10:44:20;;;;;;;31.10;14.80;;;;;;;-0.59;80.32;102693.89;107614;1241;74194;-76
2023/01/25 10:46:55;;;;;;;28.30;13.80;;;;;;;-0.54;80.40;102691.70;107508;1249;69896;-72
2023/01/25 10:49:32;;;;;;;39.60;16.90;;;;;;;-0.45;79.64;102686.95;107557;1252;67349;-72
2023/01/25 10:52:23;;;;;;;28.10;12.90;;;;;;;-0.34;80.29;102679.29;107436;1245;71259;-72
2023/01/25 10:55:15;;;;;;;31.00;15.40;;;;;;;-0.40;80.18;102680.98;107359;1245;59479;-73
2023/01/25 10:57:52;;;;;;;26.60;14.70;;;;;;;-0.36;79.78;102674.50;107377;1250;61570;-72
2023/01/25 11:00:40;;;;;;;32.10;15.70;;;;;;;-0.36;79.07;102672.61;107516;1242;74269;-72
2023/01/25 11:03:20;;;;;;;29.30;15.00;;;;;;;-0.38;79.10;102670.72;107458;1252;72049;-73
2023/01/25 11:05:58;;;;;;;28.40;14.90;;;;;;;-0.50;80.12;102664.50;107439;1242;68823;-72
2023/01/25 11:08:29;;;;;;;35.30;16.30;;;;;;;-0.41;79.97;102662.83;107416;1253;73774;-72
2023/01/25 11:11:10;;;;;;;31.70;15.40;;;;;;;-0.46;80.37;102655.98;107443;1242;61327;-74
2023/01/25 11:13:41;;;;;;;33.10;14.80;;;;;;;-0.49;79.81;102658.36;107096;1247;60993;-72
2023/01/25 11:16:21;;;;;;;39.00;18.00;;;;;;;-0.38;79.83;102656.17;107349;1242;73633;-72
2023/01/25 11:18:54;;;;;;;30.90;15.60;;;;;;;-0.39;79.09;102649.83;107388;1242;70235;-70
2023/01/25 11:21:28;;;;;;;31.40;15.10;;;;;;;-0.36;79.78;102644.38;107413;1240;70417;-72
2023/01/25 11:24:03;;;;;;;34.80;15.50;;;;;;;-0.47;78.98;102641.75;107460;1242;75184;-72
2023/01/25 11:26:35;;;;;;;28.70;13.30;;;;;;;-0.41;80.15;102642.13;107454;1248;60211;-72
2023/01/25 11:29:18;;;;;;;28.10;14.70;;;;;;;-0.40;79.72;102635.96;107406;1247;60461;-72
2023/01/25 11:31:49;;;;;;;;;;;;;;;-0.41;79.34;102635.27;107465;1242;70879;-72
2023/01/25 11:34:23;;;;;;;27.80;13.80;;;;;;;-0.44;78.64;102633.73;107423;1241;71287;-72
2023/01/25 11:37:20;;;;;;;31.20;14.70;;;;;;;-0.41;78.91;102628.77;107400;1253;68222;-71
2023/01/25 11:40:14;;;;;;;25.70;13.60;;;;;;;-0.33;78.86;102629.30;107310;1243;72426;-72
2023/01/25 11:43:20;;;;;;;32.30;17.70;;;;;;;-0.33;78.13;102623.48;107390;1248;60916;-72